sensor_id;sensor_type;location;lat;lon;timestamp;P1;durP1;ratioP1;P2;durP2;ratioP2
29384;SDS011;16367;48.736;9.218;2023-12-14T00:06:01;4.15;;;1.75;;
29384;SDS011;16367;48.736;9.218;2023-12-14T00:08:02;5.65;;;1.70;;
29384;SDS011;16367;48.736;9.218;2023-12-14T00:10:05;7.70;;;2.10;;
29384;SDS011;16367;48.736;9.218;2023-12-14T00:12:07;3.92;;;1.70;;
29384;SDS011;16367;48.736;9.218;2023-12-14T00:14:08;3.92;;;1.63;;
29384;SDS011;16367;48.736;9.218;2023-12-14T00:16:10;4.95;;;1.45;;
29384;SDS011;16367;48.736;9.218;2023-12-14T00:18:11;4.15;;;1.70;;
29384;SDS011;16367;48.736;9.218;2023-12-14T00:20:13;4.75;;;1.70;;
29384;SDS011;16367;48.736;9.218;2023-12-14T00:26:29;4.78;;;1.65;;
29384;SDS011;16367;48.736;9.218;2023-12-14T00:28:30;4.82;;;2.00;;
29384;SDS011;16367;48.736;9.218;2023-12-14T00:30:35;5.07;;;1.98;;
29384;SDS011;16367;48.736;9.218;2023-12-14T00:32:36;6.88;;;2.00;;
29384;SDS011;16367;48.736;9.218;2023-12-14T00:34:38;8.05;;;1.90;;
29384;SDS011;16367;48.736;9.218;2023-12-14T00:36:39;6.18;;;2.17;;
29384;SDS011;16367;48.736;9.218;2023-12-14T00:38:41;4.50;;;1.88;;
29384;SDS011;16367;48.736;9.218;2023-12-14T00:40:42;5.72;;;2.08;;
29384;SDS011;16367;48.736;9.218;2023-12-14T00:42:44;5.40;;;2.13;;
29384;SDS011;16367;48.736;9.218;2023-12-14T00:49:01;5.38;;;1.80;;
29384;SDS011;16367;48.736;9.218;2023-12-14T00:51:03;4.65;;;2.25;;
29384;SDS011;16367;48.736;9.218;2023-12-14T00:53:05;6.65;;;2.28;;
29384;SDS011;16367;48.736;9.218;2023-12-14T00:55:06;5.78;;;2.05;;
29384;SDS011;16367;48.736;9.218;2023-12-14T00:57:07;5.10;;;1.88;;
29384;SDS011;16367;48.736;9.218;2023-12-14T00:59:09;4.80;;;1.88;;
29384;SDS011;16367;48.736;9.218;2023-12-14T01:01:10;4.00;;;1.77;;
29384;SDS011;16367;48.736;9.218;2023-12-14T01:03:12;4.70;;;1.77;;
29384;SDS011;16367;48.736;9.218;2023-12-14T01:05:15;4.55;;;1.52;;
29384;SDS011;16367;48.736;9.218;2023-12-14T01:11:45;4.30;;;1.90;;
29384;SDS011;16367;48.736;9.218;2023-12-14T01:13:47;4.85;;;2.15;;
29384;SDS011;16367;48.736;9.218;2023-12-14T01:15:48;7.57;;;2.03;;
29384;SDS011;16367;48.736;9.218;2023-12-14T01:17:49;4.72;;;1.58;;
29384;SDS011;16367;48.736;9.218;2023-12-14T01:19:51;6.43;;;1.85;;
29384;SDS011;16367;48.736;9.218;2023-12-14T01:21:52;5.82;;;1.60;;
29384;SDS011;16367;48.736;9.218;2023-12-14T01:23:55;3.95;;;1.60;;
29384;SDS011;16367;48.736;9.218;2023-12-14T01:25:57;4.88;;;1.40;;
29384;SDS011;16367;48.736;9.218;2023-12-14T01:27:59;5.13;;;1.70;;
29384;SDS011;16367;48.736;9.218;2023-12-14T01:32:28;5.03;;;1.58;;
29384;SDS011;16367;48.736;9.218;2023-12-14T01:34:29;6.55;;;1.50;;
29384;SDS011;16367;48.736;9.218;2023-12-14T01:36:31;4.82;;;1.95;;
29384;SDS011;16367;48.736;9.218;2023-12-14T01:38:33;4.68;;;1.45;;
29384;SDS011;16367;48.736;9.218;2023-12-14T01:40:35;5.95;;;1.60;;
29384;SDS011;16367;48.736;9.218;2023-12-14T01:42:36;4.35;;;1.65;;
29384;SDS011;16367;48.736;9.218;2023-12-14T01:44:37;3.80;;;1.52;;
29384;SDS011;16367;48.736;9.218;2023-12-14T01:46:39;3.78;;;1.50;;
29384;SDS011;16367;48.736;9.218;2023-12-14T01:48:41;4.47;;;1.45;;
29384;SDS011;16367;48.736;9.218;2023-12-14T01:54:09;4.38;;;1.40;;
29384;SDS011;16367;48.736;9.218;2023-12-14T01:56:10;4.40;;;1.35;;
29384;SDS011;16367;48.736;9.218;2023-12-14T01:58:12;3.72;;;1.13;;
29384;SDS011;16367;48.736;9.218;2023-12-14T02:00:16;5.03;;;1.45;;
29384;SDS011;16367;48.736;9.218;2023-12-14T02:02:23;3.47;;;1.20;;
29384;SDS011;16367;48.736;9.218;2023-12-14T02:04:24;3.53;;;1.15;;
29384;SDS011;16367;48.736;9.218;2023-12-14T02:06:26;3.70;;;1.35;;
29384;SDS011;16367;48.736;9.218;2023-12-14T02:08:27;4.22;;;1.33;;
29384;SDS011;16367;48.736;9.218;2023-12-14T02:10:30;4.70;;;1.45;;
29384;SDS011;16367;48.736;9.218;2023-12-14T02:12:31;4.82;;;1.10;;
29384;SDS011;16367;48.736;9.218;2023-12-14T02:14:34;2.80;;;0.90;;
29384;SDS011;16367;48.736;9.218;2023-12-14T02:22:16;5.63;;;1.23;;
29384;SDS011;16367;48.736;9.218;2023-12-14T02:24:18;4.13;;;1.05;;
29384;SDS011;16367;48.736;9.218;2023-12-14T02:26:20;5.25;;;1.40;;
29384;SDS011;16367;48.736;9.218;2023-12-14T02:28:21;3.67;;;1.00;;
29384;SDS011;16367;48.736;9.218;2023-12-14T02:30:22;2.53;;;1.05;;
29384;SDS011;16367;48.736;9.218;2023-12-14T02:32:24;2.60;;;0.85;;
29384;SDS011;16367;48.736;9.218;2023-12-14T02:34:27;2.90;;;0.90;;
29384;SDS011;16367;48.736;9.218;2023-12-14T02:36:28;2.53;;;0.93;;
29384;SDS011;16367;48.736;9.218;2023-12-14T02:38:29;3.63;;;1.05;;
29384;SDS011;16367;48.736;9.218;2023-12-14T02:44:44;3.25;;;1.02;;
29384;SDS011;16367;48.736;9.218;2023-12-14T02:46:45;3.50;;;1.10;;
29384;SDS011;16367;48.736;9.218;2023-12-14T02:48:47;3.03;;;0.90;;
29384;SDS011;16367;48.736;9.218;2023-12-14T02:50:48;2.70;;;0.85;;
29384;SDS011;16367;48.736;9.218;2023-12-14T02:52:49;3.15;;;1.08;;
29384;SDS011;16367;48.736;9.218;2023-12-14T02:54:50;3.78;;;1.23;;
29384;SDS011;16367;48.736;9.218;2023-12-14T02:56:52;3.40;;;1.10;;
29384;SDS011;16367;48.736;9.218;2023-12-14T02:58:53;4.72;;;0.95;;
29384;SDS011;16367;48.736;9.218;2023-12-14T03:00:55;3.33;;;1.27;;
29384;SDS011;16367;48.736;9.218;2023-12-14T03:06:11;4.50;;;1.10;;
29384;SDS011;16367;48.736;9.218;2023-12-14T03:08:13;3.85;;;1.35;;
29384;SDS011;16367;48.736;9.218;2023-12-14T03:10:14;8.98;;;1.63;;
29384;SDS011;16367;48.736;9.218;2023-12-14T03:12:15;3.17;;;1.10;;
29384;SDS011;16367;48.736;9.218;2023-12-14T03:14:16;3.20;;;1.10;;
29384;SDS011;16367;48.736;9.218;2023-12-14T03:16:18;3.65;;;1.55;;
29384;SDS011;16367;48.736;9.218;2023-12-14T03:18:19;3.47;;;1.20;;
29384;SDS011;16367;48.736;9.218;2023-12-14T03:20:20;3.08;;;1.02;;
29384;SDS011;16367;48.736;9.218;2023-12-14T03:22:22;3.10;;;1.00;;
29384;SDS011;16367;48.736;9.218;2023-12-14T03:26:37;5.28;;;1.00;;
29384;SDS011;16367;48.736;9.218;2023-12-14T03:28:39;5.00;;;1.38;;
29384;SDS011;16367;48.736;9.218;2023-12-14T03:30:40;3.70;;;1.20;;
29384;SDS011;16367;48.736;9.218;2023-12-14T03:32:41;3.72;;;1.23;;
29384;SDS011;16367;48.736;9.218;2023-12-14T03:34:43;3.35;;;1.10;;
29384;SDS011;16367;48.736;9.218;2023-12-14T03:36:44;4.18;;;1.20;;
29384;SDS011;16367;48.736;9.218;2023-12-14T03:38:45;3.63;;;1.17;;
29384;SDS011;16367;48.736;9.218;2023-12-14T03:40:47;5.82;;;1.88;;
29384;SDS011;16367;48.736;9.218;2023-12-14T03:42:49;4.55;;;1.70;;
29384;SDS011;16367;48.736;9.218;2023-12-14T03:44:50;5.90;;;1.90;;
29384;SDS011;16367;48.736;9.218;2023-12-14T03:52:20;4.88;;;1.60;;
29384;SDS011;16367;48.736;9.218;2023-12-14T03:54:22;4.97;;;1.67;;
29384;SDS011;16367;48.736;9.218;2023-12-14T03:56:23;4.72;;;1.52;;
29384;SDS011;16367;48.736;9.218;2023-12-14T03:58:24;6.55;;;1.85;;
29384;SDS011;16367;48.736;9.218;2023-12-14T04:00:25;4.72;;;1.80;;
29384;SDS011;16367;48.736;9.218;2023-12-14T04:02:27;6.30;;;1.70;;
29384;SDS011;16367;48.736;9.218;2023-12-14T04:04:28;5.65;;;2.22;;
29384;SDS011;16367;48.736;9.218;2023-12-14T04:06:29;5.15;;;1.73;;
29384;SDS011;16367;48.736;9.218;2023-12-14T04:08:31;7.05;;;1.67;;
29384;SDS011;16367;48.736;9.218;2023-12-14T04:10:32;5.00;;;1.83;;
29384;SDS011;16367;48.736;9.218;2023-12-14T04:17:17;4.85;;;2.17;;
29384;SDS011;16367;48.736;9.218;2023-12-14T04:19:18;4.55;;;1.80;;
29384;SDS011;16367;48.736;9.218;2023-12-14T04:21:19;5.90;;;2.00;;
29384;SDS011;16367;48.736;9.218;2023-12-14T04:23:21;3.80;;;1.65;;
29384;SDS011;16367;48.736;9.218;2023-12-14T04:25:22;5.43;;;2.00;;
29384;SDS011;16367;48.736;9.218;2023-12-14T04:27:23;6.47;;;2.17;;
29384;SDS011;16367;48.736;9.218;2023-12-14T04:29:28;5.18;;;2.03;;
29384;SDS011;16367;48.736;9.218;2023-12-14T04:31:30;4.70;;;1.83;;
29384;SDS011;16367;48.736;9.218;2023-12-14T04:33:32;6.28;;;2.00;;
29384;SDS011;16367;48.736;9.218;2023-12-14T04:38:58;5.82;;;2.13;;
29384;SDS011;16367;48.736;9.218;2023-12-14T04:41:00;6.72;;;2.50;;
29384;SDS011;16367;48.736;9.218;2023-12-14T04:43:01;6.22;;;2.67;;
29384;SDS011;16367;48.736;9.218;2023-12-14T04:45:03;6.40;;;2.60;;
29384;SDS011;16367;48.736;9.218;2023-12-14T04:47:05;5.22;;;2.50;;
29384;SDS011;16367;48.736;9.218;2023-12-14T04:49:08;6.82;;;2.63;;
29384;SDS011;16367;48.736;9.218;2023-12-14T04:51:13;5.95;;;2.58;;
29384;SDS011;16367;48.736;9.218;2023-12-14T04:53:14;7.13;;;3.05;;
29384;SDS011;16367;48.736;9.218;2023-12-14T04:55:16;5.22;;;2.33;;
29384;SDS011;16367;48.736;9.218;2023-12-14T04:59:41;5.80;;;2.35;;
29384;SDS011;16367;48.736;9.218;2023-12-14T05:01:42;6.25;;;2.72;;
29384;SDS011;16367;48.736;9.218;2023-12-14T05:03:44;6.35;;;2.90;;
29384;SDS011;16367;48.736;9.218;2023-12-14T05:05:45;7.53;;;3.40;;
29384;SDS011;16367;48.736;9.218;2023-12-14T05:07:46;6.47;;;2.53;;
29384;SDS011;16367;48.736;9.218;2023-12-14T05:09:47;7.88;;;2.92;;
29384;SDS011;16367;48.736;9.218;2023-12-14T05:11:49;6.65;;;2.83;;
29384;SDS011;16367;48.736;9.218;2023-12-14T05:13:50;7.95;;;2.90;;
29384;SDS011;16367;48.736;9.218;2023-12-14T05:15:52;6.20;;;2.50;;
29384;SDS011;16367;48.736;9.218;2023-12-14T05:25:23;7.72;;;3.13;;
29384;SDS011;16367;48.736;9.218;2023-12-14T05:27:26;5.45;;;2.70;;
29384;SDS011;16367;48.736;9.218;2023-12-14T05:29:27;7.85;;;3.28;;
29384;SDS011;16367;48.736;9.218;2023-12-14T05:31:28;7.35;;;3.13;;
29384;SDS011;16367;48.736;9.218;2023-12-14T05:33:29;6.70;;;3.22;;
29384;SDS011;16367;48.736;9.218;2023-12-14T05:35:31;8.45;;;3.03;;
29384;SDS011;16367;48.736;9.218;2023-12-14T05:37:33;8.82;;;3.72;;
29384;SDS011;16367;48.736;9.218;2023-12-14T05:39:34;6.85;;;2.97;;
29384;SDS011;16367;48.736;9.218;2023-12-14T05:41:39;6.95;;;3.50;;
29384;SDS011;16367;48.736;9.218;2023-12-14T05:51:11;6.93;;;3.22;;
29384;SDS011;16367;48.736;9.218;2023-12-14T05:53:13;8.13;;;3.55;;
29384;SDS011;16367;48.736;9.218;2023-12-14T05:55:14;7.13;;;3.08;;
29384;SDS011;16367;48.736;9.218;2023-12-14T05:57:15;10.48;;;3.42;;
29384;SDS011;16367;48.736;9.218;2023-12-14T05:59:17;8.30;;;3.63;;
29384;SDS011;16367;48.736;9.218;2023-12-14T06:01:18;8.15;;;3.70;;
29384;SDS011;16367;48.736;9.218;2023-12-14T06:03:20;9.88;;;4.07;;
29384;SDS011;16367;48.736;9.218;2023-12-14T06:05:21;8.18;;;3.60;;
29384;SDS011;16367;48.736;9.218;2023-12-14T06:07:24;8.30;;;3.92;;
29384;SDS011;16367;48.736;9.218;2023-12-14T06:12:22;9.25;;;4.18;;
29384;SDS011;16367;48.736;9.218;2023-12-14T06:14:24;10.50;;;4.22;;
29384;SDS011;16367;48.736;9.218;2023-12-14T06:16:25;11.15;;;5.15;;
29384;SDS011;16367;48.736;9.218;2023-12-14T06:18:26;8.60;;;4.47;;
29384;SDS011;16367;48.736;9.218;2023-12-14T06:20:28;13.35;;;4.85;;
29384;SDS011;16367;48.736;9.218;2023-12-14T06:22:29;10.75;;;5.43;;
29384;SDS011;16367;48.736;9.218;2023-12-14T06:24:30;9.70;;;4.70;;
29384;SDS011;16367;48.736;9.218;2023-12-14T06:26:32;10.23;;;4.35;;
29384;SDS011;16367;48.736;9.218;2023-12-14T06:28:34;9.98;;;4.97;;
29384;SDS011;16367;48.736;9.218;2023-12-14T06:34:48;9.20;;;4.45;;
29384;SDS011;16367;48.736;9.218;2023-12-14T06:36:51;11.73;;;4.72;;
29384;SDS011;16367;48.736;9.218;2023-12-14T06:38:52;10.43;;;5.18;;
29384;SDS011;16367;48.736;9.218;2023-12-14T06:40:53;12.13;;;5.20;;
29384;SDS011;16367;48.736;9.218;2023-12-14T06:42:55;10.02;;;4.57;;
29384;SDS011;16367;48.736;9.218;2023-12-14T06:44:56;11.48;;;5.05;;
29384;SDS011;16367;48.736;9.218;2023-12-14T06:46:58;11.15;;;5.03;;
29384;SDS011;16367;48.736;9.218;2023-12-14T06:48:59;10.88;;;5.22;;
29384;SDS011;16367;48.736;9.218;2023-12-14T06:51:01;13.50;;;5.93;;
29384;SDS011;16367;48.736;9.218;2023-12-14T06:56:15;13.77;;;4.95;;
29384;SDS011;16367;48.736;9.218;2023-12-14T06:58:17;13.57;;;5.43;;
29384;SDS011;16367;48.736;9.218;2023-12-14T07:00:18;10.75;;;4.95;;
29384;SDS011;16367;48.736;9.218;2023-12-14T07:02:19;12.13;;;5.38;;
29384;SDS011;16367;48.736;9.218;2023-12-14T07:04:21;12.68;;;6.05;;
29384;SDS011;16367;48.736;9.218;2023-12-14T07:06:22;11.07;;;5.30;;
29384;SDS011;16367;48.736;9.218;2023-12-14T07:08:24;14.07;;;5.78;;
29384;SDS011;16367;48.736;9.218;2023-12-14T07:10:26;9.75;;;4.57;;
29384;SDS011;16367;48.736;9.218;2023-12-14T07:12:27;12.32;;;5.22;;
29384;SDS011;16367;48.736;9.218;2023-12-14T07:18:38;12.63;;;5.90;;
29384;SDS011;16367;48.736;9.218;2023-12-14T07:20:41;11.63;;;5.55;;
29384;SDS011;16367;48.736;9.218;2023-12-14T07:22:42;14.52;;;5.00;;
29384;SDS011;16367;48.736;9.218;2023-12-14T07:24:44;11.98;;;5.13;;
29384;SDS011;16367;48.736;9.218;2023-12-14T07:26:56;12.00;;;4.82;;
29384;SDS011;16367;48.736;9.218;2023-12-14T07:28:58;11.85;;;4.13;;
29384;SDS011;16367;48.736;9.218;2023-12-14T07:30:59;12.45;;;4.90;;
29384;SDS011;16367;48.736;9.218;2023-12-14T07:33:00;12.32;;;4.55;;
29384;SDS011;16367;48.736;9.218;2023-12-14T07:35:04;11.02;;;4.65;;
29384;SDS011;16367;48.736;9.218;2023-12-14T07:41:35;9.32;;;4.55;;
29384;SDS011;16367;48.736;9.218;2023-12-14T07:43:36;9.50;;;4.47;;
29384;SDS011;16367;48.736;9.218;2023-12-14T07:45:37;12.88;;;5.15;;
29384;SDS011;16367;48.736;9.218;2023-12-14T07:47:39;10.85;;;4.35;;
29384;SDS011;16367;48.736;9.218;2023-12-14T07:49:40;8.80;;;3.97;;
29384;SDS011;16367;48.736;9.218;2023-12-14T07:51:41;9.40;;;4.22;;
29384;SDS011;16367;48.736;9.218;2023-12-14T07:53:43;11.30;;;4.68;;
29384;SDS011;16367;48.736;9.218;2023-12-14T07:55:44;10.07;;;3.88;;
29384;SDS011;16367;48.736;9.218;2023-12-14T07:57:46;11.07;;;3.80;;
29384;SDS011;16367;48.736;9.218;2023-12-14T08:06:02;9.15;;;4.47;;
29384;SDS011;16367;48.736;9.218;2023-12-14T08:08:04;9.65;;;3.97;;
29384;SDS011;16367;48.736;9.218;2023-12-14T08:10:06;12.18;;;4.45;;
29384;SDS011;16367;48.736;9.218;2023-12-14T08:12:08;13.65;;;5.18;;
29384;SDS011;16367;48.736;9.218;2023-12-14T08:14:09;12.05;;;4.70;;
29384;SDS011;16367;48.736;9.218;2023-12-14T08:16:11;12.82;;;4.50;;
29384;SDS011;16367;48.736;9.218;2023-12-14T08:18:12;8.13;;;3.55;;
29384;SDS011;16367;48.736;9.218;2023-12-14T08:20:16;10.00;;;4.15;;
29384;SDS011;16367;48.736;9.218;2023-12-14T08:22:19;9.10;;;3.65;;
29384;SDS011;16367;48.736;9.218;2023-12-14T08:27:44;9.00;;;3.70;;
29384;SDS011;16367;48.736;9.218;2023-12-14T08:29:45;9.32;;;3.95;;
29384;SDS011;16367;48.736;9.218;2023-12-14T08:31:47;9.93;;;4.60;;
29384;SDS011;16367;48.736;9.218;2023-12-14T08:33:48;7.88;;;3.50;;
29384;SDS011;16367;48.736;9.218;2023-12-14T08:35:51;7.82;;;3.35;;
29384;SDS011;16367;48.736;9.218;2023-12-14T08:37:53;8.95;;;3.60;;
29384;SDS011;16367;48.736;9.218;2023-12-14T08:39:54;7.53;;;3.40;;
29384;SDS011;16367;48.736;9.218;2023-12-14T08:41:56;7.55;;;3.50;;
29384;SDS011;16367;48.736;9.218;2023-12-14T08:43:58;9.80;;;4.35;;
29384;SDS011;16367;48.736;9.218;2023-12-14T08:52:13;9.43;;;3.30;;
29384;SDS011;16367;48.736;9.218;2023-12-14T08:54:15;9.13;;;4.30;;
29384;SDS011;16367;48.736;9.218;2023-12-14T08:56:16;8.23;;;4.18;;
29384;SDS011;16367;48.736;9.218;2023-12-14T08:58:17;8.55;;;3.80;;
29384;SDS011;16367;48.736;9.218;2023-12-14T09:00:19;8.98;;;3.72;;
29384;SDS011;16367;48.736;9.218;2023-12-14T09:02:20;10.40;;;4.40;;
29384;SDS011;16367;48.736;9.218;2023-12-14T09:04:22;9.55;;;3.92;;
29384;SDS011;16367;48.736;9.218;2023-12-14T09:06:23;10.50;;;4.43;;
29384;SDS011;16367;48.736;9.218;2023-12-14T09:08:25;10.20;;;3.75;;
29384;SDS011;16367;48.736;9.218;2023-12-14T09:17:02;10.90;;;4.38;;
29384;SDS011;16367;48.736;9.218;2023-12-14T09:19:03;9.60;;;4.38;;
29384;SDS011;16367;48.736;9.218;2023-12-14T09:21:05;11.13;;;5.03;;
29384;SDS011;16367;48.736;9.218;2023-12-14T09:23:06;8.50;;;4.03;;
29384;SDS011;16367;48.736;9.218;2023-12-14T09:25:08;11.80;;;4.38;;
29384;SDS011;16367;48.736;9.218;2023-12-14T09:27:10;11.27;;;4.40;;
29384;SDS011;16367;48.736;9.218;2023-12-14T09:29:11;8.48;;;3.67;;
29384;SDS011;16367;48.736;9.218;2023-12-14T09:31:13;8.35;;;3.55;;
29384;SDS011;16367;48.736;9.218;2023-12-14T09:33:17;8.18;;;3.92;;
29384;SDS011;16367;48.736;9.218;2023-12-14T09:41:33;11.23;;;4.95;;
29384;SDS011;16367;48.736;9.218;2023-12-14T09:43:34;10.80;;;4.35;;
29384;SDS011;16367;48.736;9.218;2023-12-14T09:45:36;8.98;;;4.43;;
29384;SDS011;16367;48.736;9.218;2023-12-14T09:47:41;9.95;;;4.88;;
29384;SDS011;16367;48.736;9.218;2023-12-14T09:49:43;11.73;;;4.97;;
29384;SDS011;16367;48.736;9.218;2023-12-14T09:51:46;9.80;;;4.85;;
29384;SDS011;16367;48.736;9.218;2023-12-14T09:53:47;11.75;;;4.85;;
29384;SDS011;16367;48.736;9.218;2023-12-14T09:55:49;9.93;;;4.60;;
29384;SDS011;16367;48.736;9.218;2023-12-14T09:57:51;10.23;;;4.50;;
29384;SDS011;16367;48.736;9.218;2023-12-14T10:05:24;12.93;;;5.05;;
29384;SDS011;16367;48.736;9.218;2023-12-14T10:07:25;11.18;;;5.38;;
29384;SDS011;16367;48.736;9.218;2023-12-14T10:09:26;12.10;;;5.10;;
29384;SDS011;16367;48.736;9.218;2023-12-14T10:11:28;12.60;;;5.28;;
29384;SDS011;16367;48.736;9.218;2023-12-14T10:13:36;11.93;;;5.13;;
29384;SDS011;16367;48.736;9.218;2023-12-14T10:15:41;10.80;;;4.68;;
29384;SDS011;16367;48.736;9.218;2023-12-14T10:17:43;10.57;;;4.88;;
29384;SDS011;16367;48.736;9.218;2023-12-14T10:19:44;9.73;;;4.40;;
29384;SDS011;16367;48.736;9.218;2023-12-14T10:21:48;9.70;;;4.40;;
29384;SDS011;16367;48.736;9.218;2023-12-14T10:28:04;12.32;;;4.45;;
29384;SDS011;16367;48.736;9.218;2023-12-14T10:30:06;8.90;;;3.92;;
29384;SDS011;16367;48.736;9.218;2023-12-14T10:32:12;13.02;;;5.10;;
29384;SDS011;16367;48.736;9.218;2023-12-14T10:34:14;9.98;;;4.53;;
29384;SDS011;16367;48.736;9.218;2023-12-14T10:36:17;11.00;;;4.95;;
29384;SDS011;16367;48.736;9.218;2023-12-14T10:38:19;11.18;;;4.55;;
29384;SDS011;16367;48.736;9.218;2023-12-14T10:40:21;11.57;;;4.20;;
29384;SDS011;16367;48.736;9.218;2023-12-14T10:42:24;9.40;;;3.85;;
29384;SDS011;16367;48.736;9.218;2023-12-14T10:44:32;9.63;;;3.42;;
29384;SDS011;16367;48.736;9.218;2023-12-14T10:53:11;9.85;;;4.82;;
29384;SDS011;16367;48.736;9.218;2023-12-14T10:55:14;11.48;;;4.22;;
29384;SDS011;16367;48.736;9.218;2023-12-14T10:57:21;11.45;;;4.05;;
29384;SDS011;16367;48.736;9.218;2023-12-14T10:59:23;7.70;;;3.55;;
29384;SDS011;16367;48.736;9.218;2023-12-14T11:01:25;7.95;;;3.58;;
29384;SDS011;16367;48.736;9.218;2023-12-14T11:03:30;9.90;;;3.53;;
29384;SDS011;16367;48.736;9.218;2023-12-14T11:05:33;7.15;;;3.22;;
29384;SDS011;16367;48.736;9.218;2023-12-14T11:07:45;7.00;;;2.75;;
29384;SDS011;16367;48.736;9.218;2023-12-14T11:09:48;7.97;;;3.28;;
29384;SDS011;16367;48.736;9.218;2023-12-14T11:14:52;9.05;;;2.58;;
29384;SDS011;16367;48.736;9.218;2023-12-14T11:16:53;6.97;;;2.72;;
29384;SDS011;16367;48.736;9.218;2023-12-14T11:21:29;7.13;;;3.25;;
29384;SDS011;16367;48.736;9.218;2023-12-14T11:23:32;7.05;;;3.10;;
29384;SDS011;16367;48.736;9.218;2023-12-14T11:25:36;7.25;;;2.97;;
29384;SDS011;16367;48.736;9.218;2023-12-14T11:27:46;6.97;;;3.25;;
29384;SDS011;16367;48.736;9.218;2023-12-14T11:29:47;6.53;;;3.40;;
29384;SDS011;16367;48.736;9.218;2023-12-14T11:31:50;5.88;;;2.72;;
29384;SDS011;16367;48.736;9.218;2023-12-14T11:40:08;7.53;;;2.78;;
29384;SDS011;16367;48.736;9.218;2023-12-14T11:42:11;6.93;;;3.00;;
29384;SDS011;16367;48.736;9.218;2023-12-14T11:44:21;5.90;;;2.70;;
29384;SDS011;16367;48.736;9.218;2023-12-14T11:46:23;9.70;;;3.10;;
29384;SDS011;16367;48.736;9.218;2023-12-14T11:48:24;6.47;;;2.92;;
29384;SDS011;16367;48.736;9.218;2023-12-14T11:50:26;7.72;;;3.10;;
29384;SDS011;16367;48.736;9.218;2023-12-14T11:52:28;7.30;;;3.40;;
29384;SDS011;16367;48.736;9.218;2023-12-14T11:54:29;8.32;;;3.72;;
29384;SDS011;16367;48.736;9.218;2023-12-14T11:56:31;8.73;;;3.17;;
29384;SDS011;16367;48.736;9.218;2023-12-14T12:04:50;8.13;;;3.15;;
29384;SDS011;16367;48.736;9.218;2023-12-14T12:06:58;6.85;;;3.25;;
29384;SDS011;16367;48.736;9.218;2023-12-14T12:09:02;7.82;;;3.00;;
29384;SDS011;16367;48.736;9.218;2023-12-14T12:11:08;9.75;;;3.17;;
29384;SDS011;16367;48.736;9.218;2023-12-14T12:13:11;7.28;;;3.25;;
29384;SDS011;16367;48.736;9.218;2023-12-14T12:15:14;7.10;;;3.17;;
29384;SDS011;16367;48.736;9.218;2023-12-14T12:17:15;7.13;;;2.90;;
29384;SDS011;16367;48.736;9.218;2023-12-14T12:19:16;6.50;;;2.40;;
29384;SDS011;16367;48.736;9.218;2023-12-14T12:21:18;7.15;;;2.42;;
29384;SDS011;16367;48.736;9.218;2023-12-14T12:29:34;4.03;;;1.55;;
29384;SDS011;16367;48.736;9.218;2023-12-14T12:31:35;4.13;;;1.60;;
29384;SDS011;16367;48.736;9.218;2023-12-14T12:33:38;5.32;;;1.48;;
29384;SDS011;16367;48.736;9.218;2023-12-14T12:35:40;3.20;;;1.33;;
29384;SDS011;16367;48.736;9.218;2023-12-14T12:37:41;4.28;;;1.40;;
29384;SDS011;16367;48.736;9.218;2023-12-14T12:39:43;6.05;;;1.50;;
29384;SDS011;16367;48.736;9.218;2023-12-14T12:41:44;4.28;;;1.40;;
29384;SDS011;16367;48.736;9.218;2023-12-14T12:43:45;4.35;;;1.30;;
29384;SDS011;16367;48.736;9.218;2023-12-14T12:45:48;4.28;;;1.60;;
29384;SDS011;16367;48.736;9.218;2023-12-14T12:55:15;4.45;;;1.40;;
29384;SDS011;16367;48.736;9.218;2023-12-14T12:57:16;5.15;;;1.70;;
29384;SDS011;16367;48.736;9.218;2023-12-14T12:59:18;5.03;;;1.33;;
29384;SDS011;16367;48.736;9.218;2023-12-14T13:01:19;4.13;;;1.52;;
29384;SDS011;16367;48.736;9.218;2023-12-14T13:03:21;4.22;;;1.30;;
29384;SDS011;16367;48.736;9.218;2023-12-14T13:05:23;3.72;;;1.45;;
29384;SDS011;16367;48.736;9.218;2023-12-14T13:07:25;4.65;;;1.33;;
29384;SDS011;16367;48.736;9.218;2023-12-14T13:09:27;4.47;;;1.33;;
29384;SDS011;16367;48.736;9.218;2023-12-14T13:11:29;3.58;;;1.02;;
29384;SDS011;16367;48.736;9.218;2023-12-14T13:17:44;3.10;;;1.20;;
29384;SDS011;16367;48.736;9.218;2023-12-14T13:19:45;3.50;;;1.30;;
29384;SDS011;16367;48.736;9.218;2023-12-14T13:21:47;4.05;;;1.08;;
29384;SDS011;16367;48.736;9.218;2023-12-14T13:23:48;3.40;;;1.17;;
29384;SDS011;16367;48.736;9.218;2023-12-14T13:25:51;3.83;;;1.30;;
29384;SDS011;16367;48.736;9.218;2023-12-14T13:27:52;3.95;;;1.35;;
29384;SDS011;16367;48.736;9.218;2023-12-14T13:29:55;4.18;;;1.20;;
29384;SDS011;16367;48.736;9.218;2023-12-14T13:31:56;3.22;;;0.98;;
29384;SDS011;16367;48.736;9.218;2023-12-14T13:33:58;3.70;;;1.20;;
29384;SDS011;16367;48.736;9.218;2023-12-14T13:43:25;4.82;;;1.40;;
29384;SDS011;16367;48.736;9.218;2023-12-14T13:45:27;4.93;;;1.55;;
29384;SDS011;16367;48.736;9.218;2023-12-14T13:47:31;3.88;;;1.30;;
29384;SDS011;16367;48.736;9.218;2023-12-14T13:49:32;4.97;;;1.52;;
29384;SDS011;16367;48.736;9.218;2023-12-14T13:51:34;6.78;;;1.50;;
29384;SDS011;16367;48.736;9.218;2023-12-14T13:53:35;4.95;;;1.75;;
29384;SDS011;16367;48.736;9.218;2023-12-14T13:55:37;4.80;;;1.40;;
29384;SDS011;16367;48.736;9.218;2023-12-14T13:57:38;4.70;;;1.42;;
29384;SDS011;16367;48.736;9.218;2023-12-14T13:59:41;4.53;;;1.55;;
29384;SDS011;16367;48.736;9.218;2023-12-14T14:07:17;4.03;;;1.40;;
29384;SDS011;16367;48.736;9.218;2023-12-14T14:09:19;5.35;;;1.90;;
29384;SDS011;16367;48.736;9.218;2023-12-14T14:11:21;5.03;;;2.05;;
29384;SDS011;16367;48.736;9.218;2023-12-14T14:13:23;4.75;;;2.03;;
29384;SDS011;16367;48.736;9.218;2023-12-14T14:15:24;5.55;;;2.25;;
29384;SDS011;16367;48.736;9.218;2023-12-14T14:17:26;6.32;;;2.35;;
29384;SDS011;16367;48.736;9.218;2023-12-14T14:19:27;6.68;;;2.58;;
29384;SDS011;16367;48.736;9.218;2023-12-14T14:21:28;7.43;;;2.40;;
29384;SDS011;16367;48.736;9.218;2023-12-14T14:23:31;6.07;;;2.80;;
29384;SDS011;16367;48.736;9.218;2023-12-14T14:25:33;8.25;;;2.90;;
29384;SDS011;16367;48.736;9.218;2023-12-14T14:29:13;7.80;;;2.95;;
29384;SDS011;16367;48.736;9.218;2023-12-14T14:31:15;7.97;;;3.42;;
29384;SDS011;16367;48.736;9.218;2023-12-14T14:33:16;9.13;;;3.85;;
29384;SDS011;16367;48.736;9.218;2023-12-14T14:35:19;9.55;;;3.83;;
29384;SDS011;16367;48.736;9.218;2023-12-14T14:37:20;9.93;;;4.30;;
29384;SDS011;16367;48.736;9.218;2023-12-14T14:39:21;11.30;;;4.82;;
29384;SDS011;16367;48.736;9.218;2023-12-14T14:41:23;12.15;;;4.70;;
29384;SDS011;16367;48.736;9.218;2023-12-14T14:43:24;10.93;;;4.47;;
29384;SDS011;16367;48.736;9.218;2023-12-14T14:45:26;14.13;;;5.20;;
29384;SDS011;16367;48.736;9.218;2023-12-14T14:50:35;13.93;;;5.55;;
29384;SDS011;16367;48.736;9.218;2023-12-14T14:52:37;13.77;;;5.32;;
29384;SDS011;16367;48.736;9.218;2023-12-14T14:54:39;12.57;;;5.32;;
29384;SDS011;16367;48.736;9.218;2023-12-14T14:56:41;16.08;;;6.25;;
29384;SDS011;16367;48.736;9.218;2023-12-14T14:58:43;14.30;;;6.20;;
29384;SDS011;16367;48.736;9.218;2023-12-14T15:00:46;12.95;;;5.93;;
29384;SDS011;16367;48.736;9.218;2023-12-14T15:02:48;14.23;;;5.60;;
29384;SDS011;16367;48.736;9.218;2023-12-14T15:04:49;15.38;;;6.63;;
29384;SDS011;16367;48.736;9.218;2023-12-14T15:06:51;14.07;;;6.47;;
29384;SDS011;16367;48.736;9.218;2023-12-14T15:11:46;16.10;;;6.25;;
29384;SDS011;16367;48.736;9.218;2023-12-14T15:13:48;14.27;;;5.57;;
29384;SDS011;16367;48.736;9.218;2023-12-14T15:15:49;16.73;;;6.40;;
29384;SDS011;16367;48.736;9.218;2023-12-14T15:17:50;17.58;;;6.55;;
29384;SDS011;16367;48.736;9.218;2023-12-14T15:19:52;15.25;;;6.40;;
29384;SDS011;16367;48.736;9.218;2023-12-14T15:21:53;16.10;;;6.72;;
29384;SDS011;16367;48.736;9.218;2023-12-14T15:23:55;23.52;;;7.07;;